Time;durP1;ratioP1;P1;durP2;ratioP2;P2;SDS_P1;SDS_P2;PMS_P1;PMS_P2;Temp;Humidity;BMP_temperature;BMP_pressure;BME280_temperature;BME280_humidity;BME280_pressure;Samples;Min_cycle;Max_cycle;Signal;HPM_P1;HPM_P2
2021/12/06 00:01:59;;;;;;;58.92;28.83;;;4.40;99.90;;;;;;5052425;28;20026;-78
2021/12/06 00:04:29;;;;;;;54.13;28.02;;;4.40;99.90;;;;;;5052517;28;20028;-78
2021/12/06 00:07:06;;;;;;;53.50;28.13;;;4.40;99.90;;;;;;5050812;28;20074;-78
2021/12/06 00:09:31;;;;;;;63.60;29.23;;;4.50;99.90;;;;;;5050996;28;20017;-78
2021/12/06 00:12:01;;;;;;;56.13;27.80;;;4.40;99.90;;;;;;5053318;28;20375;-78
2021/12/06 00:14:30;;;;;;;53.83;27.65;;;4.40;99.90;;;;;;5055993;28;20399;-78
2021/12/06 00:17:05;;;;;;;64.03;29.25;;;4.40;99.90;;;;;;5055551;28;20108;-78
2021/12/06 00:19:31;;;;;;;58.15;29.05;;;4.40;99.90;;;;;;5055719;28;20168;-78
2021/12/06 00:22:00;;;;;;;67.55;31.40;;;4.40;99.90;;;;;;5055633;28;20119;-79
2021/12/06 00:24:25;;;;;;;63.55;30.15;;;4.40;99.90;;;;;;5055467;28;20029;-78
2021/12/06 00:26:51;;;;;;;59.45;29.50;;;4.40;99.90;;;;;;5054716;28;20032;-78
2021/12/06 00:29:18;;;;;;;61.60;29.73;;;4.40;99.90;;;;;;5054191;28;20122;-78
2021/12/06 00:31:43;;;;;;;68.00;29.45;;;4.40;99.90;;;;;;5054149;28;20049;-78
2021/12/06 00:34:14;;;;;;;61.75;29.60;;;4.40;99.90;;;;;;5054059;28;20499;-78
2021/12/06 00:36:44;;;;;;;70.13;30.52;;;4.40;99.90;;;;;;5054005;28;20032;-78
2021/12/06 00:39:12;;;;;;;75.00;32.03;;;4.40;99.90;;;;;;5053967;28;20360;-78
2021/12/06 00:41:39;;;;;;;71.07;31.58;;;4.40;99.90;;;;;;5053876;28;20033;-78
2021/12/06 00:44:07;;;;;;;74.72;31.58;;;4.40;99.90;;;;;;5052390;28;20182;-78
2021/12/06 00:46:34;;;;;;;68.45;31.17;;;4.40;99.90;;;;;;5053856;28;20028;-78
2021/12/06 00:49:00;;;;;;;72.55;31.00;;;4.40;99.90;;;;;;5053763;28;20486;-78
2021/12/06 00:51:25;;;;;;;75.82;32.55;;;4.40;99.90;;;;;;5045678;28;20033;-78
2021/12/06 00:53:51;;;;;;;77.35;31.63;;;4.40;99.90;;;;;;5053716;28;20036;-78
2021/12/06 00:56:17;;;;;;;79.47;31.65;;;4.40;99.90;;;;;;5053716;28;20068;-78
2021/12/06 00:58:43;;;;;;;80.45;33.45;;;4.40;99.90;;;;;;5053585;28;20029;-78
2021/12/06 01:01:10;;;;;;;75.13;32.67;;;4.40;99.90;;;;;;5053405;28;20030;-78
2021/12/06 01:03:38;;;;;;;88.35;32.30;;;4.40;99.90;;;;;;5053523;28;20033;-78
2021/12/06 01:06:05;;;;;;;78.90;32.58;;;4.50;99.90;;;;;;5053530;28;20037;-78
2021/12/06 01:08:31;;;;;;;75.72;32.40;;;4.50;99.90;;;;;;5053460;28;20028;-78
2021/12/06 01:10:57;;;;;;;87.15;34.60;;;4.50;99.90;;;;;;5053359;28;20025;-78
2021/12/06 01:13:23;;;;;;;83.47;34.70;;;4.50;99.90;;;;;;5053358;28;20035;-79
2021/12/06 01:15:49;;;;;;;92.72;34.22;;;4.50;99.90;;;;;;5053336;28;20090;-78
2021/12/06 01:18:18;;;;;;;82.30;32.15;;;4.60;99.90;;;;;;5053352;28;20479;-78
2021/12/06 01:21:03;;;;;;;85.72;33.00;;;4.60;99.90;;;;;;5053210;28;20387;-78
2021/12/06 01:23:40;;;;;;;81.10;33.88;;;4.50;99.90;;;;;;5042593;28;20022;-78
2021/12/06 01:29:03;;;;;;;86.80;34.22;;;4.50;99.90;;;;;;5034266;28;20411;-78
2021/12/06 01:39:56;;;;;;;99.75;35.83;;;4.60;99.90;;;;;;5012691;28;20505;-78
2021/12/06 01:42:21;;;;;;;97.85;35.17;;;4.50;99.90;;;;;;5011205;28;20041;-78
2021/12/06 01:44:52;;;;;;;83.90;33.58;;;4.50;99.90;;;;;;5011384;28;20037;-78
2021/12/06 01:47:23;;;;;;;80.78;33.72;;;4.60;99.90;;;;;;5011623;28;20026;-78
2021/12/06 01:49:53;;;;;;;95.90;36.42;;;4.60;99.90;;;;;;5010763;28;20416;-78
2021/12/06 01:52:24;;;;;;;94.60;35.15;;;4.60;99.90;;;;;;5011363;28;20479;-78
2021/12/06 01:54:51;;;;;;;85.32;34.47;;;4.60;99.90;;;;;;5010948;28;20080;-78
2021/12/06 01:57:17;;;;;;;106.30;35.65;;;4.60;99.90;;;;;;5011279;28;20026;-78
2021/12/06 01:59:43;;;;;;;83.13;33.17;;;4.60;99.90;;;;;;5011433;28;20046;-78
2021/12/06 02:02:10;;;;;;;90.90;34.38;;;4.60;99.90;;;;;;5011203;28;20034;-78
2021/12/06 02:04:38;;;;;;;94.88;35.40;;;4.60;99.90;;;;;;5016849;28;20337;-78
2021/12/06 02:07:06;;;;;;;85.80;35.65;;;4.70;99.90;;;;;;5033001;28;20021;-78
2021/12/06 02:09:32;;;;;;;94.72;35.40;;;4.70;99.90;;;;;;5032797;28;20353;-78
2021/12/06 02:12:01;;;;;;;105.50;35.78;;;4.70;99.90;;;;;;5032502;28;20121;-78
2021/12/06 02:17:10;;;;;;;92.30;34.80;;;4.70;99.90;;;;;;5032969;28;20076;-78
2021/12/06 02:19:42;;;;;;;91.68;34.42;;;4.70;99.90;;;;;;5032985;28;20033;-78
2021/12/06 02:22:09;;;;;;;;;;;4.70;99.90;;;;;;5031757;28;20032;-79
2021/12/06 02:24:37;;;;;;;107.22;36.58;;;4.70;99.90;;;;;;5031392;28;20279;-78
2021/12/06 02:27:05;;;;;;;89.93;35.03;;;4.70;99.90;;;;;;5032772;28;20017;-78
2021/12/06 02:29:30;;;;;;;95.47;35.20;;;4.70;99.90;;;;;;5032596;28;20053;-78
2021/12/06 02:31:56;;;;;;;104.25;37.13;;;4.70;99.90;;;;;;5033030;28;20061;-78
2021/12/06 02:34:22;;;;;;;91.65;34.90;;;4.70;99.90;;;;;;5031458;28;20157;-78
2021/12/06 02:36:47;;;;;;;90.45;36.15;;;4.70;99.90;;;;;;5031992;28;20104;-78
2021/12/06 02:39:20;;;;;;;99.07;36.50;;;4.70;99.90;;;;;;5032912;28;20022;-78
2021/12/06 02:41:48;;;;;;;107.32;36.28;;;4.70;99.90;;;;;;5033367;28;20022;-78
2021/12/06 02:44:15;;;;;;;88.60;35.45;;;4.70;99.90;;;;;;5033052;28;20037;-78
2021/12/06 02:46:41;;;;;;;96.45;34.50;;;4.70;99.90;;;;;;5033770;28;20088;-78
2021/12/06 02:49:07;;;;;;;96.50;36.05;;;4.80;99.90;;;;;;5033203;28;20054;-78
2021/12/06 02:51:33;;;;;;;102.40;37.67;;;4.80;99.90;;;;;;5033775;28;20034;-78
2021/12/06 02:53:59;;;;;;;108.40;39.28;;;4.80;99.90;;;;;;5032958;28;20212;-78
2021/12/06 02:56:49;;;;;;;96.35;36.20;;;4.80;99.90;;;;;;5033527;28;20108;-78
2021/12/06 02:59:15;;;;;;;97.18;36.95;;;4.80;99.90;;;;;;5031942;28;20029;-78
2021/12/06 03:01:45;;;;;;;89.57;33.70;;;4.80;99.90;;;;;;5033174;28;20109;-78
2021/12/06 03:04:12;;;;;;;95.10;36.22;;;4.80;99.90;;;;;;5031510;28;20030;-78
2021/12/06 03:06:40;;;;;;;102.18;36.65;;;4.80;99.90;;;;;;5031581;28;20021;-78
2021/12/06 03:09:19;;;;;;;84.70;33.05;;;4.90;99.90;;;;;;5032842;28;20022;-78
2021/12/06 03:11:48;;;;;;;97.30;36.08;;;4.80;99.90;;;;;;5031889;28;20116;-78
2021/12/06 03:14:28;;;;;;;95.43;33.05;;;4.80;99.90;;;;;;5031503;28;20545;-78
2021/12/06 03:16:57;;;;;;;82.05;32.95;;;4.80;99.90;;;;;;5032978;28;20029;-78
2021/12/06 03:19:23;;;;;;;93.90;33.95;;;4.80;99.90;;;;;;5033175;28;20037;-79
2021/12/06 03:21:49;;;;;;;81.45;33.88;;;4.80;99.90;;;;;;5032564;28;20030;-78
2021/12/06 03:24:15;;;;;;;83.95;31.52;;;4.80;99.90;;;;;;5032803;28;20053;-78
2021/12/06 03:26:41;;;;;;;93.72;35.30;;;4.80;99.90;;;;;;5031448;28;20034;-78
2021/12/06 03:29:07;;;;;;;91.63;33.47;;;4.80;99.90;;;;;;5032996;28;20036;-78
2021/12/06 03:31:34;;;;;;;82.88;33.05;;;4.80;99.90;;;;;;5032774;28;20025;-78
2021/12/06 03:34:00;;;;;;;94.35;35.35;;;4.80;99.90;;;;;;5032981;28;20061;-78
2021/12/06 03:36:29;;;;;;;97.57;36.45;;;4.80;99.90;;;;;;5032681;28;20100;-78
2021/12/06 03:38:55;;;;;;;89.88;33.33;;;4.80;99.90;;;;;;5033025;28;20038;-79
2021/12/06 03:41:23;;;;;;;107.53;36.63;;;4.80;99.90;;;;;;5032600;28;20120;-78
2021/12/06 03:43:50;;;;;;;102.82;35.20;;;4.80;99.90;;;;;;5032487;28;20499;-78
2021/12/06 03:46:19;;;;;;;97.70;35.78;;;4.80;99.90;;;;;;5032839;28;20048;-78
2021/12/06 03:48:45;;;;;;;93.43;35.75;;;4.80;99.90;;;;;;5036534;28;20068;-78
2021/12/06 03:51:11;;;;;;;111.28;36.10;;;4.80;99.90;;;;;;5050377;28;20033;-78
2021/12/06 03:53:37;;;;;;;94.35;34.97;;;4.80;99.90;;;;;;5056605;28;20048;-78
2021/12/06 03:56:04;;;;;;;91.45;33.08;;;4.80;99.90;;;;;;5056589;28;20036;-78
2021/12/06 03:58:30;;;;;;;105.25;34.03;;;4.80;99.90;;;;;;5056156;28;20021;-78
2021/12/06 04:00:55;;;;;;;108.00;35.90;;;4.80;99.90;;;;;;5055114;28;20025;-78
2021/12/06 04:03:23;;;;;;;86.18;33.22;;;4.80;99.90;;;;;;5056262;28;20117;-78
2021/12/06 04:05:50;;;;;;;94.75;34.63;;;4.70;99.90;;;;;;5054634;28;20108;-78
2021/12/06 04:08:15;;;;;;;98.35;34.03;;;4.70;99.90;;;;;;5055969;28;20107;-78
2021/12/06 04:10:42;;;;;;;93.00;34.92;;;4.70;99.90;;;;;;5056113;28;20060;-78
2021/12/06 04:13:09;;;;;;;99.82;35.53;;;4.70;99.90;;;;;;5056077;28;20025;-78
2021/12/06 04:15:38;;;;;;;104.72;35.30;;;4.80;99.90;;;;;;5055947;28;20025;-78
2021/12/06 04:18:04;;;;;;;84.78;33.85;;;4.70;99.90;;;;;;5055850;28;20029;-78
2021/12/06 04:20:30;;;;;;;102.68;35.42;;;4.80;99.90;;;;;;5056146;28;20079;-78
2021/12/06 04:22:57;;;;;;;91.32;34.33;;;4.80;99.90;;;;;;5050865;28;20025;-78
2021/12/06 04:25:23;;;;;;;93.10;35.33;;;4.80;99.90;;;;;;5035932;28;20033;-78
2021/12/06 04:27:56;;;;;;;100.75;34.72;;;4.80;99.90;;;;;;5035756;28;20348;-78
2021/12/06 04:30:24;;;;;;;97.50;34.35;;;4.80;99.90;;;;;;5035692;28;20013;-78
2021/12/06 04:32:52;;;;;;;88.25;33.08;;;4.80;99.90;;;;;;5035648;28;20037;-78
2021/12/06 04:35:18;;;;;;;98.32;34.25;;;4.80;99.90;;;;;;5035722;28;20057;-78
2021/12/06 04:37:45;;;;;;;95.53;34.55;;;4.70;99.90;;;;;;5034425;28;20076;-78
2021/12/06 04:40:12;;;;;;;95.25;35.55;;;4.80;99.90;;;;;;5035608;28;20034;-78
2021/12/06 04:42:38;;;;;;;100.90;34.78;;;4.80;99.90;;;;;;5035194;28;20099;-78
2021/12/06 04:45:05;;;;;;;84.03;33.97;;;4.80;99.90;;;;;;5035341;28;20021;-78
2021/12/06 04:47:30;;;;;;;98.18;33.13;;;4.80;99.90;;;;;;5035551;28;20018;-78
2021/12/06 04:49:56;;;;;;;99.82;32.92;;;4.80;99.90;;;;;;5034923;28;20013;-78
2021/12/06 04:52:22;;;;;;;103.65;36.00;;;4.80;99.90;;;;;;5035266;28;20034;-78
2021/12/06 04:54:53;;;;;;;95.53;34.50;;;4.80;99.90;;;;;;5035160;28;20518;-78
2021/12/06 04:57:31;;;;;;;98.75;35.20;;;4.80;99.90;;;;;;5034737;28;20503;-78
2021/12/06 05:00:15;;;;;;;106.25;35.17;;;4.80;99.90;;;;;;5034683;28;20057;-78
2021/12/06 05:02:41;;;;;;;102.57;36.00;;;4.80;99.90;;;;;;5033922;28;20120;-78
2021/12/06 05:05:32;;;;;;;93.70;32.38;;;4.70;99.90;;;;;;5033603;28;20103;-78
2021/12/06 05:08:05;;;;;;;96.20;34.55;;;4.70;99.90;;;;;;5034769;28;20033;-78
2021/12/06 05:10:30;;;;;;;114.30;35.28;;;4.70;99.90;;;;;;5033575;28;20739;-78
2021/12/06 05:12:56;;;;;;;106.07;34.78;;;4.70;99.90;;;;;;5034847;28;20183;-78
2021/12/06 05:15:22;;;;;;;107.20;35.25;;;4.70;99.90;;;;;;5034769;28;20502;-78
2021/12/06 05:17:48;;;;;;;109.68;36.50;;;4.60;99.90;;;;;;5035032;28;20072;-78
2021/12/06 05:20:15;;;;;;;101.45;36.30;;;4.60;99.90;;;;;;5035022;28;20109;-78
2021/12/06 05:22:42;;;;;;;116.25;36.58;;;4.60;99.90;;;;;;5034834;28;20606;-78
2021/12/06 05:25:09;;;;;;;106.78;35.30;;;4.60;99.90;;;;;;5034717;28;20040;-78
2021/12/06 05:27:35;;;;;;;112.85;37.33;;;4.50;99.90;;;;;;5033541;28;20482;-78
2021/12/06 05:30:04;;;;;;;119.70;37.33;;;4.50;99.90;;;;;;5033417;28;20030;-78
2021/12/06 05:32:31;;;;;;;121.18;38.90;;;4.50;99.90;;;;;;5034492;28;20025;-78
2021/12/06 05:35:04;;;;;;;119.65;37.30;;;4.50;99.90;;;;;;5034440;28;20029;-78
2021/12/06 05:37:31;;;;;;;118.93;37.67;;;4.50;99.90;;;;;;5033243;28;20033;-78
2021/12/06 05:39:56;;;;;;;110.50;36.95;;;4.50;99.90;;;;;;5034307;28;20028;-78
2021/12/06 05:42:22;;;;;;;124.45;38.80;;;4.50;99.90;;;;;;5034314;28;20022;-78
2021/12/06 05:44:49;;;;;;;134.10;40.70;;;4.50;99.90;;;;;;5034263;28;20018;-78
2021/12/06 05:47:15;;;;;;;143.75;41.30;;;4.40;99.90;;;;;;5034492;28;20460;-78
2021/12/06 05:49:41;;;;;;;117.80;39.88;;;4.40;99.90;;;;;;5035572;28;20037;-78
2021/12/06 05:52:07;;;;;;;127.15;38.95;;;4.30;99.90;;;;;;5054217;28;20119;-78
2021/12/06 05:54:33;;;;;;;143.02;41.85;;;4.20;99.90;;;;;;5053811;28;20036;-78
2021/12/06 05:57:00;;;;;;;143.18;41.30;;;4.10;99.90;;;;;;5053840;28;20104;-78
2021/12/06 05:59:26;;;;;;;129.50;39.70;;;4.10;99.90;;;;;;5053860;28;20029;-78
2021/12/06 06:01:54;;;;;;;146.50;43.13;;;4.00;99.90;;;;;;5053845;28;20070;-78
2021/12/06 06:04:20;;;;;;;141.55;40.67;;;4.00;99.90;;;;;;5053696;28;20013;-78
2021/12/06 06:06:46;;;;;;;148.90;41.30;;;4.10;99.90;;;;;;5053955;28;20114;-78
2021/12/06 06:09:13;;;;;;;155.98;43.20;;;4.10;99.90;;;;;;5053210;28;20122;-78
2021/12/06 06:11:40;;;;;;;140.63;42.63;;;4.10;99.90;;;;;;5053758;28;20107;-78
2021/12/06 06:14:07;;;;;;;159.82;42.28;;;4.10;99.90;;;;;;5053685;28;20417;-78
2021/12/06 06:16:36;;;;;;;150.40;41.45;;;4.10;99.90;;;;;;5053654;28;20385;-78
2021/12/06 06:19:03;;;;;;;158.38;44.83;;;4.00;99.90;;;;;;5053757;28;20023;-78
2021/12/06 06:21:29;;;;;;;152.98;43.85;;;4.10;99.90;;;;;;5051943;28;20021;-78
2021/12/06 06:23:55;;;;;;;158.48;42.22;;;4.10;99.90;;;;;;5052186;28;20027;-78
2021/12/06 06:26:22;;;;;;;174.40;43.88;;;4.10;99.90;;;;;;5053549;28;20056;-78
2021/12/06 06:28:47;;;;;;;161.98;44.20;;;4.10;99.90;;;;;;5053483;28;20569;-78
2021/12/06 06:31:13;;;;;;;156.93;44.97;;;4.10;99.90;;;;;;5053376;28;20027;-79
2021/12/06 06:33:39;;;;;;;167.60;44.72;;;4.10;99.90;;;;;;5053260;28;20517;-78
2021/12/06 06:36:04;;;;;;;147.75;41.45;;;4.10;99.90;;;;;;5053485;28;20333;-78
2021/12/06 06:38:30;;;;;;;160.20;41.63;;;4.10;99.90;;;;;;5051942;28;20029;-78
2021/12/06 06:40:56;;;;;;;164.63;43.65;;;4.10;99.90;;;;;;5053505;28;20100;-78
2021/12/06 06:43:21;;;;;;;152.48;43.45;;;4.10;99.90;;;;;;5052741;28;20495;-78
2021/12/06 06:45:47;;;;;;;155.38;43.53;;;4.20;99.90;;;;;;5052675;28;20028;-78
2021/12/06 06:48:13;;;;;;;149.27;43.60;;;4.20;99.90;;;;;;5053071;28;20025;-78
2021/12/06 06:50:39;;;;;;;198.10;45.60;;;4.20;99.90;;;;;;5043955;28;20021;-78
2021/12/06 06:53:05;;;;;;;159.27;44.22;;;4.30;99.90;;;;;;5031886;28;20033;-78
2021/12/06 06:55:31;;;;;;;159.73;43.83;;;4.20;99.90;;;;;;5033069;28;20025;-78
2021/12/06 06:57:57;;;;;;;171.07;44.53;;;4.20;99.90;;;;;;5033228;28;20069;-78
2021/12/06 07:00:28;;;;;;;154.35;44.10;;;4.20;99.90;;;;;;5033378;28;20036;-78
2021/12/06 07:02:54;;;;;;;162.45;45.17;;;4.20;99.90;;;;;;5033467;28;20310;-78
2021/12/06 07:05:19;;;;;;;157.15;42.05;;;4.20;99.90;;;;;;5032982;28;20049;-78
2021/12/06 07:07:45;;;;;;;161.25;42.22;;;4.10;99.90;;;;;;5033042;28;20100;-79
2021/12/06 07:10:12;;;;;;;177.55;44.35;;;4.20;99.90;;;;;;5033148;28;20033;-79
2021/12/06 07:12:45;;;;;;;150.43;42.80;;;4.20;99.90;;;;;;5032848;28;20025;-78
2021/12/06 07:15:13;;;;;;;146.48;42.25;;;4.10;99.90;;;;;;5033202;28;20105;-78
2021/12/06 07:17:40;;;;;;;145.75;41.85;;;4.10;99.90;;;;;;5033146;28;20025;-78
2021/12/06 07:20:08;;;;;;;146.00;42.17;;;4.10;99.90;;;;;;5033190;28;20079;-78
2021/12/06 07:22:33;;;;;;;133.32;42.70;;;4.20;99.90;;;;;;5038418;28;20120;-78
2021/12/06 07:24:59;;;;;;;128.80;41.47;;;4.20;99.90;;;;;;5057272;28;20095;-78
2021/12/06 07:27:25;;;;;;;157.05;44.67;;;4.20;99.90;;;;;;5056603;28;20096;-78
2021/12/06 07:29:50;;;;;;;149.25;42.17;;;4.10;99.90;;;;;;5056994;28;20074;-78
2021/12/06 07:32:16;;;;;;;141.18;41.85;;;4.10;99.90;;;;;;5056694;28;20040;-78
2021/12/06 07:34:42;;;;;;;146.40;44.75;;;4.10;99.90;;;;;;5057042;28;20440;-78
2021/12/06 07:37:07;;;;;;;131.27;41.45;;;4.10;99.90;;;;;;5056749;28;20052;-78
2021/12/06 07:39:33;;;;;;;132.68;42.17;;;4.20;99.90;;;;;;5056735;28;20032;-79
2021/12/06 07:41:59;;;;;;;131.73;41.70;;;4.10;99.90;;;;;;5056693;28;20107;-78
2021/12/06 07:44:25;;;;;;;139.90;41.38;;;4.20;99.90;;;;;;5056664;28;20502;-78
2021/12/06 07:46:52;;;;;;;137.98;42.20;;;4.20;99.90;;;;;;5056333;28;20021;-78
2021/12/06 07:49:19;;;;;;;132.60;42.65;;;4.20;99.90;;;;;;5055342;28;20087;-78
2021/12/06 07:51:45;;;;;;;137.15;43.17;;;4.20;99.90;;;;;;5056288;28;20060;-78
2021/12/06 07:54:12;;;;;;;126.85;42.22;;;4.20;99.90;;;;;;5056518;28;20056;-78
2021/12/06 07:56:39;;;;;;;116.55;41.58;;;4.20;99.90;;;;;;5056392;28;20036;-78
2021/12/06 07:59:05;;;;;;;125.75;42.05;;;4.20;99.90;;;;;;5055229;28;20083;-78
2021/12/06 08:01:31;;;;;;;118.15;41.92;;;4.20;99.90;;;;;;5054548;28;20025;-78
2021/12/06 08:03:58;;;;;;;110.80;38.83;;;4.20;99.90;;;;;;5055828;28;20024;-78
2021/12/06 08:06:25;;;;;;;117.10;40.70;;;4.20;99.90;;;;;;5056467;28;20765;-78
2021/12/06 08:08:53;;;;;;;115.05;41.80;;;4.20;99.90;;;;;;5056058;28;20066;-78
2021/12/06 08:11:21;;;;;;;126.65;41.72;;;4.30;99.90;;;;;;5054720;28;20497;-78
2021/12/06 08:13:53;;;;;;;115.32;39.88;;;4.30;99.90;;;;;;5056123;28;20017;-78
2021/12/06 08:16:21;;;;;;;;;;;4.30;99.90;;;;;;5055826;28;20147;-78
2021/12/06 08:18:47;;;;;;;118.50;40.53;;;4.30;99.90;;;;;;5050201;28;19904;-78
2021/12/06 08:21:15;;;;;;;121.32;40.53;;;4.30;99.90;;;;;;5055616;28;20025;-78
2021/12/06 08:23:41;;;;;;;129.60;41.38;;;4.30;99.90;;;;;;5051161;28;20084;-78
2021/12/06 08:26:09;;;;;;;111.78;40.25;;;4.40;99.90;;;;;;5053294;28;20051;-78
2021/12/06 08:28:36;;;;;;;115.68;42.17;;;4.30;99.90;;;;;;5055496;28;20116;-78
2021/12/06 08:31:03;;;;;;;126.28;42.72;;;4.30;99.90;;;;;;5055324;28;20021;-78
2021/12/06 08:33:29;;;;;;;121.22;42.40;;;4.40;99.90;;;;;;5053542;28;20032;-78
2021/12/06 08:35:56;;;;;;;112.75;40.40;;;4.40;99.90;;;;;;5055098;28;20116;-78
2021/12/06 08:38:25;;;;;;;116.90;40.78;;;4.40;99.90;;;;;;5055380;28;20025;-78
2021/12/06 08:40:53;;;;;;;116.05;43.20;;;4.30;99.90;;;;;;5055259;28;20837;-78
2021/12/06 08:43:19;;;;;;;113.13;41.75;;;4.40;99.90;;;;;;5054960;28;20053;-78
2021/12/06 08:45:52;;;;;;;107.80;39.88;;;4.40;99.90;;;;;;5055408;28;20017;-78
2021/12/06 08:48:20;;;;;;;103.40;40.58;;;4.40;99.90;;;;;;5054991;28;20074;-78
2021/12/06 08:50:45;;;;;;;99.60;40.03;;;4.40;99.90;;;;;;5045157;28;20419;-78
2021/12/06 08:53:12;;;;;;;100.10;40.20;;;4.50;99.90;;;;;;5041970;28;20033;-78
2021/12/06 08:55:38;;;;;;;92.03;36.83;;;4.40;99.90;;;;;;5054834;28;20048;-78
2021/12/06 08:58:03;;;;;;;95.05;38.38;;;4.50;99.90;;;;;;5055031;28;20356;-78
2021/12/06 09:00:33;;;;;;;90.20;36.88;;;4.50;99.90;;;;;;5055038;28;20096;-78
2021/12/06 09:02:59;;;;;;;89.35;37.20;;;4.50;99.90;;;;;;5054324;28;20037;-78
2021/12/06 09:05:33;;;;;;;97.88;37.78;;;4.50;99.90;;;;;;5054780;28;20041;-78
2021/12/06 09:08:00;;;;;;;93.55;39.63;;;4.60;99.90;;;;;;5055093;28;20028;-78
2021/12/06 09:10:25;;;;;;;98.07;39.53;;;4.50;99.90;;;;;;5054609;28;20021;-78
2021/12/06 09:12:53;;;;;;;108.65;40.30;;;4.50;99.90;;;;;;5054732;28;20032;-78
2021/12/06 09:15:21;;;;;;;104.70;41.20;;;4.50;99.90;;;;;;5054306;28;20031;-78
2021/12/06 09:17:48;;;;;;;92.88;39.38;;;4.50;99.90;;;;;;5049133;28;20500;-78
2021/12/06 09:20:16;;;;;;;115.28;41.88;;;4.50;99.90;;;;;;5054412;28;20028;-78
2021/12/06 09:22:42;;;;;;;101.50;41.15;;;4.60;99.90;;;;;;5052750;28;20052;-77
2021/12/06 09:25:09;;;;;;;114.05;41.05;;;4.40;99.90;;;;;;5054091;28;20013;-78
2021/12/06 09:27:36;;;;;;;91.10;40.17;;;4.40;99.90;;;;;;5054247;28;20120;-78
2021/12/06 09:30:04;;;;;;;105.95;42.45;;;4.30;99.90;;;;;;5054115;28;20032;-78
2021/12/06 09:32:30;;;;;;;97.22;41.30;;;4.40;99.90;;;;;;5054020;28;20025;-78
2021/12/06 09:34:58;;;;;;;94.53;41.78;;;4.30;99.90;;;;;;5054099;28;20117;-77
2021/12/06 09:37:24;;;;;;;107.82;43.33;;;4.30;99.90;;;;;;5053826;28;20095;-77
2021/12/06 09:39:51;;;;;;;104.40;44.35;;;4.40;99.90;;;;;;5053899;28;20475;-78
2021/12/06 09:42:18;;;;;;;100.75;41.50;;;4.40;99.90;;;;;;5053638;28;20028;-77
2021/12/06 09:44:45;;;;;;;93.93;40.97;;;4.40;99.90;;;;;;5052826;28;20021;-78
2021/12/06 09:47:12;;;;;;;105.47;41.90;;;4.30;99.90;;;;;;5053974;28;20021;-78
2021/12/06 09:49:37;;;;;;;115.10;46.88;;;4.30;99.90;;;;;;5052659;28;20025;-77
2021/12/06 09:52:06;;;;;;;108.75;45.08;;;4.40;99.90;;;;;;5047739;28;20033;-77
2021/12/06 09:54:36;;;;;;;104.88;45.92;;;4.40;99.90;;;;;;5053644;28;20025;-77
2021/12/06 09:57:05;;;;;;;135.57;49.60;;;4.40;99.90;;;;;;5053610;28;20403;-78
2021/12/06 09:59:32;;;;;;;129.30;47.10;;;4.50;99.90;;;;;;5053546;28;20078;-77
2021/12/06 10:02:03;;;;;;;133.23;49.78;;;4.50;99.90;;;;;;5052121;28;20032;-77
2021/12/06 10:04:32;;;;;;;101.63;44.65;;;4.50;99.90;;;;;;5053067;28;20021;-77
2021/12/06 10:06:59;;;;;;;107.47;44.60;;;4.50;99.90;;;;;;5053085;28;20035;-77
2021/12/06 10:09:27;;;;;;;113.72;43.60;;;4.40;99.90;;;;;;5051937;28;20456;-77
2021/12/06 10:11:55;;;;;;;102.75;42.60;;;4.30;99.90;;;;;;5053074;28;20098;-77
2021/12/06 10:14:20;;;;;;;94.97;40.35;;;4.40;99.90;;;;;;5052382;28;20017;-77
2021/12/06 10:16:47;;;;;;;102.93;42.55;;;4.30;99.90;;;;;;5052793;28;20044;-77
2021/12/06 10:19:14;;;;;;;100.80;39.22;;;4.30;99.90;;;;;;5051441;28;20025;-76
2021/12/06 10:21:42;;;;;;;74.40;35.72;;;4.40;99.90;;;;;;5053280;28;20028;-76
2021/12/06 10:24:17;;;;;;;91.40;39.22;;;4.30;99.90;;;;;;5052803;28;20044;-76
2021/12/06 10:26:43;;;;;;;87.85;38.65;;;4.30;99.90;;;;;;5053241;28;20028;-76
2021/12/06 10:29:20;;;;;;;145.90;42.65;;;4.30;99.90;;;;;;5053092;28;20442;-76
2021/12/06 10:31:47;;;;;;;105.95;40.80;;;4.20;99.90;;;;;;5053380;28;20021;-76
2021/12/06 10:34:22;;;;;;;109.10;41.58;;;4.20;99.90;;;;;;5053056;28;20067;-77
2021/12/06 10:36:49;;;;;;;100.82;39.88;;;4.20;99.90;;;;;;5053068;28;20021;-76
2021/12/06 10:39:14;;;;;;;89.93;39.65;;;4.30;99.90;;;;;;5051534;28;20017;-76
2021/12/06 10:41:41;;;;;;;85.90;39.75;;;4.40;99.90;;;;;;5052695;28;20379;-76
2021/12/06 10:44:12;;;;;;;99.13;38.30;;;4.40;99.90;;;;;;5032920;28;20053;-76
2021/12/06 10:46:48;;;;;;;81.40;35.67;;;4.30;99.90;;;;;;5031789;28;20384;-76
2021/12/06 10:49:17;;;;;;;115.22;39.20;;;4.30;99.90;;;;;;5033129;28;20456;-76
2021/12/06 10:51:43;;;;;;;91.25;37.47;;;4.20;99.90;;;;;;5033033;28;20102;-76
2021/12/06 10:54:19;;;;;;;104.68;41.38;;;4.30;99.90;;;;;;5047639;28;20100;-76
2021/12/06 10:56:47;;;;;;;93.07;36.53;;;4.30;99.90;;;;;;5052535;28;20033;-76
2021/12/06 10:59:24;;;;;;;84.45;37.55;;;4.30;99.90;;;;;;5051201;28;20403;-76
2021/12/06 11:01:54;;;;;;;83.95;36.35;;;4.30;99.90;;;;;;5052054;28;20021;-76
2021/12/06 11:04:23;;;;;;;101.32;38.92;;;4.30;99.90;;;;;;5048995;28;20470;-77
2021/12/06 11:06:52;;;;;;;89.70;37.65;;;4.40;99.90;;;;;;5052906;28;20113;-78
2021/12/06 11:09:25;;;;;;;85.68;37.47;;;4.50;99.90;;;;;;5052519;28;20067;-78
2021/12/06 11:11:55;;;;;;;70.57;32.92;;;4.50;99.90;;;;;;5052823;28;20463;-76
2021/12/06 11:14:24;;;;;;;78.80;33.13;;;4.60;99.90;;;;;;5051404;28;20048;-78
2021/12/06 11:16:54;;;;;;;80.57;35.17;;;4.50;99.90;;;;;;5047632;28;20020;-78
2021/12/06 11:19:23;;;;;;;64.97;32.47;;;4.60;99.90;;;;;;5034348;28;20028;-78
2021/12/06 11:21:54;;;;;;;73.40;32.40;;;4.70;99.90;;;;;;5032650;28;20025;-78
2021/12/06 11:24:28;;;;;;;72.55;32.83;;;4.60;99.90;;;;;;5033085;28;20022;-78
2021/12/06 11:26:58;;;;;;;65.80;31.98;;;4.60;99.90;;;;;;5032821;28;20080;-78
2021/12/06 11:29:28;;;;;;;80.07;35.42;;;4.60;99.90;;;;;;5031490;28;20026;-78
2021/12/06 11:32:00;;;;;;;75.25;33.58;;;4.60;99.90;;;;;;5031248;28;20034;-77
2021/12/06 11:34:33;;;;;;;80.80;34.85;;;4.60;99.90;;;;;;5032725;28;20082;-77
2021/12/06 11:37:00;;;;;;;82.40;33.90;;;4.60;99.90;;;;;;5032991;28;20102;-79
2021/12/06 11:39:26;;;;;;;88.75;34.65;;;4.70;99.90;;;;;;5041233;28;20383;-79
2021/12/06 11:41:56;;;;;;;102.95;36.95;;;4.60;99.90;;;;;;5052858;28;20029;-79
2021/12/06 11:44:29;;;;;;;97.05;35.95;;;4.50;99.90;;;;;;5052581;28;20136;-79
2021/12/06 11:46:59;;;;;;;98.45;35.58;;;4.70;99.90;;;;;;5052508;28;20021;-79
2021/12/06 11:49:54;;;;;;;116.75;37.70;;;4.60;99.90;;;;;;5053451;28;20432;-79
2021/12/06 11:52:24;;;;;;;112.40;37.28;;;4.50;99.90;;;;;;4991854;28;20238;-79
2021/12/06 11:55:00;;;;;;;126.43;39.45;;;4.50;99.90;;;;;;4991380;28;20042;-78
2021/12/06 11:57:29;;;;;;;146.45;41.25;;;4.50;99.90;;;;;;4991471;28;20034;-79
2021/12/06 12:00:00;;;;;;;122.15;37.45;;;4.40;99.90;;;;;;4997045;28;20038;-78
2021/12/06 12:02:40;;;;;;;132.82;40.22;;;4.40;99.90;;;;;;5010973;28;20368;-78
2021/12/06 12:05:36;;;;;;;128.60;39.30;;;4.50;99.90;;;;;;4994233;28;20025;-78
2021/12/06 12:08:14;;;;;;;111.22;37.95;;;4.40;99.90;;;;;;4970133;28;20032;-78
2021/12/06 12:10:47;;;;;;;135.70;39.53;;;4.40;99.90;;;;;;4957917;28;20039;-81
2021/12/06 12:13:25;;;;;;;123.65;38.80;;;4.40;99.90;;;;;;4964842;28;20039;-78
2021/12/06 12:15:53;;;;;;;119.65;36.20;;;4.40;99.90;;;;;;4976087;28;20077;-78
2021/12/06 12:18:19;;;;;;;114.07;36.13;;;4.40;99.90;;;;;;4976141;28;20190;-78
2021/12/06 12:20:47;;;;;;;98.05;35.22;;;4.40;99.90;;;;;;4974870;28;20027;-79
2021/12/06 12:23:12;;;;;;;100.57;33.60;;;4.30;99.90;;;;;;4974930;28;20035;-77
2021/12/06 12:25:55;;;;;;;90.68;31.52;;;4.40;99.90;;;;;;4974141;28;20381;-76
2021/12/06 12:28:26;;;;;;;94.82;33.67;;;4.40;99.90;;;;;;4973315;28;20042;-76
2021/12/06 12:30:55;;;;;;;98.32;34.65;;;4.40;99.90;;;;;;4973316;28;20469;-76
2021/12/06 12:33:22;;;;;;;96.32;34.88;;;4.50;99.90;;;;;;4973362;28;20038;-75
2021/12/06 12:35:52;;;;;;;97.00;32.90;;;4.40;99.90;;;;;;4973049;28;20401;-76
2021/12/06 12:38:22;;;;;;;87.38;32.90;;;4.50;99.90;;;;;;4973209;28;20468;-76
2021/12/06 12:40:55;;;;;;;87.82;31.77;;;4.50;99.90;;;;;;4973147;28;20062;-76
2021/12/06 12:43:25;;;;;;;82.20;32.33;;;4.60;99.90;;;;;;4972895;28;20054;-76
2021/12/06 12:45:56;;;;;;;81.03;31.42;;;4.50;99.90;;;;;;5031003;28;20045;-76
2021/12/06 12:48:25;;;;;;;76.00;29.55;;;4.50;99.90;;;;;;5052300;28;20014;-76
2021/12/06 12:51:23;;;;;;;83.38;30.15;;;4.30;99.90;;;;;;5051070;28;20032;-76
2021/12/06 12:54:09;;;;;;;74.53;29.83;;;4.40;99.90;;;;;;5030741;28;20116;-76